sensor_id;sensor_type;location;lat;lon;timestamp;P1;durP1;ratioP1;P2;durP2;ratioP2
31974;SDS011;18500;43.618;1.474;2023-05-19T00:00:42;638.65;;;590.13;;
31974;SDS011;18500;43.618;1.474;2023-05-19T00:03:09;854.08;;;779.70;;
31974;SDS011;18500;43.618;1.474;2023-05-19T00:05:36;980.97;;;887.33;;
31974;SDS011;18500;43.618;1.474;2023-05-19T00:08:09;1046.75;;;938.10;;
31974;SDS011;18500;43.618;1.474;2023-05-19T00:10:35;1035.95;;;929.63;;
31974;SDS011;18500;43.618;1.474;2023-05-19T00:13:02;1012.15;;;907.63;;
31974;SDS011;18500;43.618;1.474;2023-05-19T00:15:28;975.97;;;877.42;;
31974;SDS011;18500;43.618;1.474;2023-05-19T00:17:54;986.42;;;876.22;;
31974;SDS011;18500;43.618;1.474;2023-05-19T00:20:20;942.08;;;845.60;;
31974;SDS011;18500;43.618;1.474;2023-05-19T00:22:46;911.25;;;812.05;;
31974;SDS011;18500;43.618;1.474;2023-05-19T00:25:12;812.58;;;734.50;;
31974;SDS011;18500;43.618;1.474;2023-05-19T00:27:37;885.50;;;791.67;;
31974;SDS011;18500;43.618;1.474;2023-05-19T00:30:03;839.60;;;757.78;;
31974;SDS011;18500;43.618;1.474;2023-05-19T00:32:29;865.70;;;776.47;;
31974;SDS011;18500;43.618;1.474;2023-05-19T00:34:55;727.78;;;659.90;;
31974;SDS011;18500;43.618;1.474;2023-05-19T00:37:20;858.35;;;772.30;;
31974;SDS011;18500;43.618;1.474;2023-05-19T00:39:47;870.75;;;780.92;;
31974;SDS011;18500;43.618;1.474;2023-05-19T00:42:13;889.92;;;795.67;;
31974;SDS011;18500;43.618;1.474;2023-05-19T00:44:39;727.00;;;661.67;;
31974;SDS011;18500;43.618;1.474;2023-05-19T00:47:05;872.30;;;781.97;;
31974;SDS011;18500;43.618;1.474;2023-05-19T00:49:31;1136.97;;;943.15;;
31974;SDS011;18500;43.618;1.474;2023-05-19T00:51:58;1340.20;;;999.90;;
31974;SDS011;18500;43.618;1.474;2023-05-19T00:54:25;1011.58;;;905.47;;
31974;SDS011;18500;43.618;1.474;2023-05-19T00:56:51;679.78;;;624.45;;
31974;SDS011;18500;43.618;1.474;2023-05-19T00:59:19;848.10;;;763.13;;
31974;SDS011;18500;43.618;1.474;2023-05-19T01:01:45;836.58;;;752.17;;
31974;SDS011;18500;43.618;1.474;2023-05-19T01:04:14;968.67;;;866.92;;
31974;SDS011;18500;43.618;1.474;2023-05-19T01:06:41;940.72;;;854.50;;
31974;SDS011;18500;43.618;1.474;2023-05-19T01:09:07;930.05;;;838.03;;
31974;SDS011;18500;43.618;1.474;2023-05-19T01:11:33;1058.57;;;946.22;;
31974;SDS011;18500;43.618;1.474;2023-05-19T01:13:59;1137.85;;;999.90;;
31974;SDS011;18500;43.618;1.474;2023-05-19T01:21:42;1015.70;;;915.95;;
31974;SDS011;18500;43.618;1.474;2023-05-19T01:32:27;1351.50;;;999.90;;
31974;SDS011;18500;43.618;1.474;2023-05-19T01:34:55;1397.13;;;999.90;;
31974;SDS011;18500;43.618;1.474;2023-05-19T01:37:21;1386.05;;;999.90;;
31974;SDS011;18500;43.618;1.474;2023-05-19T01:39:48;1388.60;;;999.90;;
31974;SDS011;18500;43.618;1.474;2023-05-19T01:42:15;1177.13;;;979.95;;
31974;SDS011;18500;43.618;1.474;2023-05-19T01:44:41;1430.75;;;999.90;;
31974;SDS011;18500;43.618;1.474;2023-05-19T01:47:08;1366.95;;;999.90;;
31974;SDS011;18500;43.618;1.474;2023-05-19T01:49:34;1229.95;;;999.90;;
31974;SDS011;18500;43.618;1.474;2023-05-19T01:52:00;1339.20;;;999.90;;
31974;SDS011;18500;43.618;1.474;2023-05-19T01:54:26;1175.40;;;999.90;;
31974;SDS011;18500;43.618;1.474;2023-05-19T01:59:49;1153.15;;;999.90;;
31974;SDS011;18500;43.618;1.474;2023-05-19T02:02:32;1205.72;;;999.90;;
31974;SDS011;18500;43.618;1.474;2023-05-19T02:05:26;1069.30;;;935.75;;
31974;SDS011;18500;43.618;1.474;2023-05-19T02:08:10;792.08;;;717.83;;
31974;SDS011;18500;43.618;1.474;2023-05-19T02:10:44;753.15;;;686.00;;
31974;SDS011;18500;43.618;1.474;2023-05-19T02:13:15;585.08;;;540.65;;
31974;SDS011;18500;43.618;1.474;2023-05-19T02:15:45;602.22;;;557.30;;
31974;SDS011;18500;43.618;1.474;2023-05-19T02:18:12;511.48;;;472.95;;
31974;SDS011;18500;43.618;1.474;2023-05-19T02:20:42;518.90;;;479.20;;
31974;SDS011;18500;43.618;1.474;2023-05-19T02:23:07;484.17;;;452.42;;
31974;SDS011;18500;43.618;1.474;2023-05-19T02:25:33;386.55;;;360.33;;
31974;SDS011;18500;43.618;1.474;2023-05-19T02:27:59;548.40;;;510.88;;
31974;SDS011;18500;43.618;1.474;2023-05-19T02:30:24;600.30;;;557.28;;
31974;SDS011;18500;43.618;1.474;2023-05-19T02:32:50;357.13;;;335.15;;
31974;SDS011;18500;43.618;1.474;2023-05-19T02:35:18;430.80;;;403.42;;
31974;SDS011;18500;43.618;1.474;2023-05-19T02:37:44;298.50;;;279.95;;
31974;SDS011;18500;43.618;1.474;2023-05-19T02:40:10;352.90;;;330.88;;
31974;SDS011;18500;43.618;1.474;2023-05-19T02:42:36;682.78;;;625.22;;
31974;SDS011;18500;43.618;1.474;2023-05-19T02:45:01;393.60;;;367.70;;
31974;SDS011;18500;43.618;1.474;2023-05-19T02:47:27;322.63;;;301.23;;
31974;SDS011;18500;43.618;1.474;2023-05-19T02:49:53;349.58;;;326.35;;
31974;SDS011;18500;43.618;1.474;2023-05-19T02:52:18;352.45;;;329.92;;
31974;SDS011;18500;43.618;1.474;2023-05-19T02:54:44;303.25;;;284.42;;
31974;SDS011;18500;43.618;1.474;2023-05-19T02:57:10;352.30;;;330.83;;
31974;SDS011;18500;43.618;1.474;2023-05-19T02:59:35;332.33;;;312.02;;
31974;SDS011;18500;43.618;1.474;2023-05-19T03:02:01;287.85;;;270.55;;
31974;SDS011;18500;43.618;1.474;2023-05-19T03:04:27;309.45;;;288.33;;
31974;SDS011;18500;43.618;1.474;2023-05-19T03:06:53;306.38;;;287.52;;
31974;SDS011;18500;43.618;1.474;2023-05-19T03:09:19;359.17;;;336.55;;
31974;SDS011;18500;43.618;1.474;2023-05-19T03:11:45;364.13;;;341.65;;
31974;SDS011;18500;43.618;1.474;2023-05-19T03:14:11;336.23;;;316.25;;
31974;SDS011;18500;43.618;1.474;2023-05-19T03:16:38;366.30;;;342.75;;
31974;SDS011;18500;43.618;1.474;2023-05-19T03:19:05;354.58;;;331.85;;
31974;SDS011;18500;43.618;1.474;2023-05-19T03:21:32;363.25;;;339.75;;
31974;SDS011;18500;43.618;1.474;2023-05-19T03:23:58;349.88;;;326.48;;
31974;SDS011;18500;43.618;1.474;2023-05-19T03:26:25;348.25;;;324.10;;
31974;SDS011;18500;43.618;1.474;2023-05-19T03:28:50;290.23;;;272.25;;
31974;SDS011;18500;43.618;1.474;2023-05-19T03:31:16;343.40;;;322.92;;
31974;SDS011;18500;43.618;1.474;2023-05-19T03:33:42;380.52;;;355.50;;
31974;SDS011;18500;43.618;1.474;2023-05-19T03:36:07;310.25;;;291.70;;
31974;SDS011;18500;43.618;1.474;2023-05-19T03:38:33;356.75;;;334.65;;
31974;SDS011;18500;43.618;1.474;2023-05-19T03:40:59;346.60;;;325.40;;
31974;SDS011;18500;43.618;1.474;2023-05-19T03:43:25;332.75;;;310.45;;
31974;SDS011;18500;43.618;1.474;2023-05-19T03:45:51;382.20;;;356.58;;
31974;SDS011;18500;43.618;1.474;2023-05-19T03:48:17;409.08;;;383.17;;
31974;SDS011;18500;43.618;1.474;2023-05-19T03:50:43;377.85;;;354.10;;
31974;SDS011;18500;43.618;1.474;2023-05-19T03:53:08;411.08;;;384.77;;
31974;SDS011;18500;43.618;1.474;2023-05-19T03:55:34;299.02;;;280.10;;
31974;SDS011;18500;43.618;1.474;2023-05-19T03:58:01;290.02;;;271.92;;
31974;SDS011;18500;43.618;1.474;2023-05-19T04:00:27;319.77;;;301.20;;
31974;SDS011;18500;43.618;1.474;2023-05-19T04:02:53;335.40;;;311.42;;
31974;SDS011;18500;43.618;1.474;2023-05-19T04:05:18;292.42;;;274.75;;
31974;SDS011;18500;43.618;1.474;2023-05-19T04:07:44;367.83;;;343.05;;
31974;SDS011;18500;43.618;1.474;2023-05-19T04:10:10;318.35;;;298.65;;
31974;SDS011;18500;43.618;1.474;2023-05-19T04:12:37;278.77;;;262.40;;
31974;SDS011;18500;43.618;1.474;2023-05-19T04:15:02;294.25;;;275.98;;
31974;SDS011;18500;43.618;1.474;2023-05-19T04:17:30;314.38;;;294.92;;
31974;SDS011;18500;43.618;1.474;2023-05-19T04:19:55;345.90;;;323.45;;
31974;SDS011;18500;43.618;1.474;2023-05-19T04:22:21;249.98;;;234.30;;
31974;SDS011;18500;43.618;1.474;2023-05-19T04:24:47;321.83;;;299.52;;
31974;SDS011;18500;43.618;1.474;2023-05-19T04:27:14;349.15;;;325.15;;
31974;SDS011;18500;43.618;1.474;2023-05-19T04:29:41;284.30;;;265.17;;
31974;SDS011;18500;43.618;1.474;2023-05-19T04:32:07;307.70;;;288.38;;
31974;SDS011;18500;43.618;1.474;2023-05-19T04:34:34;225.88;;;212.48;;
31974;SDS011;18500;43.618;1.474;2023-05-19T04:37:04;407.75;;;378.75;;
31974;SDS011;18500;43.618;1.474;2023-05-19T04:39:31;233.93;;;220.40;;
31974;SDS011;18500;43.618;1.474;2023-05-19T04:41:56;328.35;;;306.20;;
31974;SDS011;18500;43.618;1.474;2023-05-19T04:44:22;235.88;;;221.95;;
31974;SDS011;18500;43.618;1.474;2023-05-19T04:46:48;353.05;;;331.10;;
31974;SDS011;18500;43.618;1.474;2023-05-19T04:49:14;217.77;;;205.13;;
31974;SDS011;18500;43.618;1.474;2023-05-19T04:51:39;215.10;;;202.43;;
31974;SDS011;18500;43.618;1.474;2023-05-19T04:54:08;190.43;;;179.38;;
31974;SDS011;18500;43.618;1.474;2023-05-19T04:56:34;228.35;;;215.10;;
31974;SDS011;18500;43.618;1.474;2023-05-19T04:59:00;198.30;;;187.30;;
31974;SDS011;18500;43.618;1.474;2023-05-19T05:01:26;215.93;;;202.75;;
31974;SDS011;18500;43.618;1.474;2023-05-19T05:03:53;229.55;;;215.50;;
31974;SDS011;18500;43.618;1.474;2023-05-19T05:06:19;260.77;;;244.70;;
31974;SDS011;18500;43.618;1.474;2023-05-19T05:08:46;227.65;;;214.07;;
31974;SDS011;18500;43.618;1.474;2023-05-19T05:11:13;215.07;;;202.38;;
31974;SDS011;18500;43.618;1.474;2023-05-19T05:13:38;199.07;;;187.60;;
31974;SDS011;18500;43.618;1.474;2023-05-19T05:16:05;235.07;;;221.02;;
31974;SDS011;18500;43.618;1.474;2023-05-19T05:18:32;204.30;;;192.45;;
31974;SDS011;18500;43.618;1.474;2023-05-19T05:20:58;222.32;;;208.70;;
31974;SDS011;18500;43.618;1.474;2023-05-19T05:23:25;324.10;;;302.77;;
31974;SDS011;18500;43.618;1.474;2023-05-19T05:25:51;295.50;;;277.00;;
31974;SDS011;18500;43.618;1.474;2023-05-19T05:28:17;210.43;;;197.40;;
31974;SDS011;18500;43.618;1.474;2023-05-19T05:30:43;273.25;;;255.45;;
31974;SDS011;18500;43.618;1.474;2023-05-19T05:33:09;255.68;;;239.18;;
31974;SDS011;18500;43.618;1.474;2023-05-19T05:35:35;271.80;;;255.13;;
31974;SDS011;18500;43.618;1.474;2023-05-19T05:38:01;281.52;;;263.95;;
31974;SDS011;18500;43.618;1.474;2023-05-19T05:40:27;278.77;;;261.48;;
31974;SDS011;18500;43.618;1.474;2023-05-19T05:42:53;307.92;;;287.65;;
31974;SDS011;18500;43.618;1.474;2023-05-19T05:45:22;265.42;;;248.45;;
31974;SDS011;18500;43.618;1.474;2023-05-19T05:47:48;213.00;;;200.15;;
31974;SDS011;18500;43.618;1.474;2023-05-19T05:50:15;273.80;;;256.98;;
31974;SDS011;18500;43.618;1.474;2023-05-19T05:52:41;274.30;;;257.77;;
31974;SDS011;18500;43.618;1.474;2023-05-19T05:55:15;233.38;;;219.52;;
31974;SDS011;18500;43.618;1.474;2023-05-19T05:57:44;274.08;;;256.25;;
31974;SDS011;18500;43.618;1.474;2023-05-19T06:00:09;253.10;;;237.65;;
31974;SDS011;18500;43.618;1.474;2023-05-19T06:02:43;306.83;;;286.48;;
31974;SDS011;18500;43.618;1.474;2023-05-19T06:05:13;259.37;;;244.10;;
31974;SDS011;18500;43.618;1.474;2023-05-19T06:07:41;300.77;;;282.85;;
31974;SDS011;18500;43.618;1.474;2023-05-19T06:10:07;246.25;;;230.70;;
31974;SDS011;18500;43.618;1.474;2023-05-19T06:12:34;348.77;;;325.13;;
31974;SDS011;18500;43.618;1.474;2023-05-19T06:15:03;264.23;;;247.02;;
31974;SDS011;18500;43.618;1.474;2023-05-19T06:17:29;387.45;;;359.67;;
31974;SDS011;18500;43.618;1.474;2023-05-19T06:19:54;277.10;;;260.02;;
31974;SDS011;18500;43.618;1.474;2023-05-19T06:22:20;316.05;;;296.45;;
31974;SDS011;18500;43.618;1.474;2023-05-19T06:24:46;460.52;;;424.85;;
31974;SDS011;18500;43.618;1.474;2023-05-19T06:27:12;348.95;;;327.88;;
31974;SDS011;18500;43.618;1.474;2023-05-19T06:29:37;413.05;;;384.52;;
31974;SDS011;18500;43.618;1.474;2023-05-19T06:32:03;272.20;;;255.70;;
31974;SDS011;18500;43.618;1.474;2023-05-19T06:34:29;323.50;;;303.55;;
31974;SDS011;18500;43.618;1.474;2023-05-19T06:36:55;319.75;;;298.08;;
31974;SDS011;18500;43.618;1.474;2023-05-19T06:39:20;270.33;;;252.30;;
31974;SDS011;18500;43.618;1.474;2023-05-19T06:41:46;402.85;;;374.98;;
31974;SDS011;18500;43.618;1.474;2023-05-19T06:44:12;295.35;;;276.30;;
31974;SDS011;18500;43.618;1.474;2023-05-19T06:46:38;298.77;;;280.77;;
31974;SDS011;18500;43.618;1.474;2023-05-19T06:49:03;264.25;;;248.02;;
31974;SDS011;18500;43.618;1.474;2023-05-19T06:51:29;335.77;;;313.45;;
31974;SDS011;18500;43.618;1.474;2023-05-19T06:53:55;304.95;;;283.15;;
31974;SDS011;18500;43.618;1.474;2023-05-19T06:56:21;257.20;;;241.52;;
31974;SDS011;18500;43.618;1.474;2023-05-19T06:58:46;310.50;;;290.70;;
31974;SDS011;18500;43.618;1.474;2023-05-19T07:01:12;253.73;;;237.55;;
31974;SDS011;18500;43.618;1.474;2023-05-19T07:03:38;250.38;;;234.65;;
31974;SDS011;18500;43.618;1.474;2023-05-19T07:06:04;241.82;;;226.13;;
31974;SDS011;18500;43.618;1.474;2023-05-19T07:08:29;245.35;;;230.25;;
31974;SDS011;18500;43.618;1.474;2023-05-19T07:10:55;439.63;;;404.23;;
31974;SDS011;18500;43.618;1.474;2023-05-19T07:13:21;242.35;;;226.57;;
31974;SDS011;18500;43.618;1.474;2023-05-19T07:15:46;197.50;;;185.40;;
31974;SDS011;18500;43.618;1.474;2023-05-19T07:18:16;226.73;;;212.70;;
31974;SDS011;18500;43.618;1.474;2023-05-19T07:20:42;225.38;;;210.98;;
31974;SDS011;18500;43.618;1.474;2023-05-19T07:23:07;237.50;;;222.85;;
31974;SDS011;18500;43.618;1.474;2023-05-19T07:25:33;179.85;;;168.95;;
31974;SDS011;18500;43.618;1.474;2023-05-19T07:27:58;212.13;;;199.13;;
31974;SDS011;18500;43.618;1.474;2023-05-19T07:30:27;227.07;;;212.65;;
31974;SDS011;18500;43.618;1.474;2023-05-19T07:32:53;191.55;;;179.88;;
31974;SDS011;18500;43.618;1.474;2023-05-19T07:35:19;536.83;;;491.27;;
31974;SDS011;18500;43.618;1.474;2023-05-19T07:37:48;367.73;;;344.83;;
31974;SDS011;18500;43.618;1.474;2023-05-19T07:40:15;379.85;;;355.40;;
31974;SDS011;18500;43.618;1.474;2023-05-19T07:42:41;437.60;;;408.50;;
31974;SDS011;18500;43.618;1.474;2023-05-19T07:45:07;369.63;;;346.60;;
31974;SDS011;18500;43.618;1.474;2023-05-19T07:47:33;423.92;;;393.15;;
31974;SDS011;18500;43.618;1.474;2023-05-19T07:49:58;460.98;;;427.60;;
31974;SDS011;18500;43.618;1.474;2023-05-19T07:52:24;446.15;;;414.75;;
31974;SDS011;18500;43.618;1.474;2023-05-19T07:54:49;378.10;;;352.25;;
31974;SDS011;18500;43.618;1.474;2023-05-19T07:57:15;328.80;;;305.48;;
31974;SDS011;18500;43.618;1.474;2023-05-19T07:59:42;385.15;;;358.92;;
31974;SDS011;18500;43.618;1.474;2023-05-19T08:02:08;379.83;;;352.88;;
31974;SDS011;18500;43.618;1.474;2023-05-19T08:04:34;355.98;;;331.75;;
31974;SDS011;18500;43.618;1.474;2023-05-19T08:07:00;302.92;;;282.83;;
31974;SDS011;18500;43.618;1.474;2023-05-19T08:09:25;310.95;;;290.83;;
31974;SDS011;18500;43.618;1.474;2023-05-19T08:11:51;265.65;;;249.38;;
31974;SDS011;18500;43.618;1.474;2023-05-19T08:14:17;261.98;;;246.50;;
31974;SDS011;18500;43.618;1.474;2023-05-19T08:16:44;327.27;;;306.75;;
31974;SDS011;18500;43.618;1.474;2023-05-19T08:19:11;414.98;;;389.10;;
31974;SDS011;18500;43.618;1.474;2023-05-19T08:21:37;437.23;;;410.10;;
31974;SDS011;18500;43.618;1.474;2023-05-19T08:24:02;759.42;;;697.22;;
31974;SDS011;18500;43.618;1.474;2023-05-19T08:26:28;540.25;;;500.33;;
31974;SDS011;18500;43.618;1.474;2023-05-19T08:28:54;499.15;;;464.50;;
31974;SDS011;18500;43.618;1.474;2023-05-19T08:31:19;325.73;;;304.38;;
31974;SDS011;18500;43.618;1.474;2023-05-19T08:33:46;398.80;;;371.80;;
31974;SDS011;18500;43.618;1.474;2023-05-19T08:36:12;657.45;;;603.45;;
31974;SDS011;18500;43.618;1.474;2023-05-19T08:38:37;574.17;;;535.50;;
31974;SDS011;18500;43.618;1.474;2023-05-19T08:41:03;565.00;;;524.83;;
31974;SDS011;18500;43.618;1.474;2023-05-19T08:43:29;396.23;;;370.05;;
31974;SDS011;18500;43.618;1.474;2023-05-19T08:45:55;692.33;;;631.92;;
31974;SDS011;18500;43.618;1.474;2023-05-19T08:48:24;377.75;;;352.15;;
31974;SDS011;18500;43.618;1.474;2023-05-19T08:51:01;811.70;;;743.00;;
31974;SDS011;18500;43.618;1.474;2023-05-19T08:53:50;594.55;;;548.25;;
31974;SDS011;18500;43.618;1.474;2023-05-19T08:56:22;707.85;;;650.78;;
31974;SDS011;18500;43.618;1.474;2023-05-19T08:58:49;697.33;;;639.42;;
31974;SDS011;18500;43.618;1.474;2023-05-19T09:01:15;933.78;;;844.80;;
31974;SDS011;18500;43.618;1.474;2023-05-19T09:03:43;566.88;;;525.95;;
31974;SDS011;18500;43.618;1.474;2023-05-19T09:06:10;731.17;;;670.47;;
31974;SDS011;18500;43.618;1.474;2023-05-19T09:08:37;835.55;;;761.33;;
31974;SDS011;18500;43.618;1.474;2023-05-19T09:11:03;781.00;;;709.70;;
31974;SDS011;18500;43.618;1.474;2023-05-19T09:13:29;547.90;;;506.77;;
31974;SDS011;18500;43.618;1.474;2023-05-19T09:15:55;802.05;;;733.30;;
31974;SDS011;18500;43.618;1.474;2023-05-19T09:18:22;980.55;;;886.33;;
31974;SDS011;18500;43.618;1.474;2023-05-19T09:20:49;879.05;;;801.20;;
31974;SDS011;18500;43.618;1.474;2023-05-19T09:23:16;680.80;;;627.53;;
31974;SDS011;18500;43.618;1.474;2023-05-19T09:25:51;1014.65;;;911.72;;
31974;SDS011;18500;43.618;1.474;2023-05-19T09:30:56;908.15;;;820.88;;
31974;SDS011;18500;43.618;1.474;2023-05-19T09:33:33;1112.28;;;994.03;;
31974;SDS011;18500;43.618;1.474;2023-05-19T09:36:00;1070.50;;;955.70;;
31974;SDS011;18500;43.618;1.474;2023-05-19T09:38:27;1076.28;;;962.00;;
31974;SDS011;18500;43.618;1.474;2023-05-19T09:40:57;1070.65;;;958.33;;
31974;SDS011;18500;43.618;1.474;2023-05-19T09:43:27;1004.80;;;908.13;;
31974;SDS011;18500;43.618;1.474;2023-05-19T09:45:54;1013.67;;;915.58;;
31974;SDS011;18500;43.618;1.474;2023-05-19T09:48:25;1037.97;;;933.72;;
31974;SDS011;18500;43.618;1.474;2023-05-19T09:50:52;1015.33;;;910.83;;
31974;SDS011;18500;43.618;1.474;2023-05-19T09:53:18;1030.20;;;928.20;;
31974;SDS011;18500;43.618;1.474;2023-05-19T09:55:46;951.92;;;862.75;;
31974;SDS011;18500;43.618;1.474;2023-05-19T09:58:15;1029.43;;;927.63;;
31974;SDS011;18500;43.618;1.474;2023-05-19T10:00:43;1109.45;;;989.05;;
31974;SDS011;18500;43.618;1.474;2023-05-19T10:03:10;1095.93;;;977.50;;
31974;SDS011;18500;43.618;1.474;2023-05-19T10:05:37;1086.32;;;971.22;;
31974;SDS011;18500;43.618;1.474;2023-05-19T10:08:03;1009.45;;;909.63;;
31974;SDS011;18500;43.618;1.474;2023-05-19T10:10:31;1076.72;;;963.65;;
31974;SDS011;18500;43.618;1.474;2023-05-19T10:12:57;1121.90;;;999.80;;
31974;SDS011;18500;43.618;1.474;2023-05-19T10:15:24;1068.40;;;952.35;;
31974;SDS011;18500;43.618;1.474;2023-05-19T10:17:50;1069.32;;;930.67;;
31974;SDS011;18500;43.618;1.474;2023-05-19T10:20:17;1112.15;;;988.58;;
31974;SDS011;18500;43.618;1.474;2023-05-19T10:22:44;1095.10;;;975.92;;
31974;SDS011;18500;43.618;1.474;2023-05-19T10:25:10;1177.75;;;999.90;;
31974;SDS011;18500;43.618;1.474;2023-05-19T10:27:42;1142.45;;;999.90;;
31974;SDS011;18500;43.618;1.474;2023-05-19T10:30:24;1169.00;;;999.90;;
31974;SDS011;18500;43.618;1.474;2023-05-19T10:32:57;1158.78;;;999.40;;
31974;SDS011;18500;43.618;1.474;2023-05-19T10:44:13;1042.18;;;935.15;;
31974;SDS011;18500;43.618;1.474;2023-05-19T10:47:06;1081.88;;;964.72;;
31974;SDS011;18500;43.618;1.474;2023-05-19T10:49:34;680.60;;;624.10;;
31974;SDS011;18500;43.618;1.474;2023-05-19T10:52:00;1021.28;;;915.33;;
31974;SDS011;18500;43.618;1.474;2023-05-19T10:54:39;569.22;;;527.63;;
31974;SDS011;18500;43.618;1.474;2023-05-19T10:57:07;1062.32;;;928.85;;
31974;SDS011;18500;43.618;1.474;2023-05-19T10:59:35;977.47;;;882.65;;
31974;SDS011;18500;43.618;1.474;2023-05-19T11:02:07;972.10;;;879.40;;
31974;SDS011;18500;43.618;1.474;2023-05-19T11:07:07;1052.68;;;944.53;;
31974;SDS011;18500;43.618;1.474;2023-05-19T11:09:38;1073.30;;;957.33;;
31974;SDS011;18500;43.618;1.474;2023-05-19T11:12:05;1091.80;;;946.40;;
31974;SDS011;18500;43.618;1.474;2023-05-19T11:14:32;1087.22;;;966.28;;
31974;SDS011;18500;43.618;1.474;2023-05-19T11:16:59;1241.80;;;999.90;;
31974;SDS011;18500;43.618;1.474;2023-05-19T11:19:25;1135.70;;;998.00;;
31974;SDS011;18500;43.618;1.474;2023-05-19T11:22:08;1255.07;;;999.90;;
31974;SDS011;18500;43.618;1.474;2023-05-19T11:29:56;1248.68;;;999.90;;
31974;SDS011;18500;43.618;1.474;2023-05-19T11:32:44;1154.90;;;999.90;;
31974;SDS011;18500;43.618;1.474;2023-05-19T11:35:12;1124.38;;;973.03;;
31974;SDS011;18500;43.618;1.474;2023-05-19T11:37:38;1068.32;;;951.85;;
31974;SDS011;18500;43.618;1.474;2023-05-19T11:40:05;788.38;;;715.75;;
31974;SDS011;18500;43.618;1.474;2023-05-19T11:42:32;858.65;;;777.60;;
31974;SDS011;18500;43.618;1.474;2023-05-19T11:45:01;878.60;;;795.30;;
31974;SDS011;18500;43.618;1.474;2023-05-19T11:47:29;982.40;;;881.10;;
31974;SDS011;18500;43.618;1.474;2023-05-19T11:49:55;1079.78;;;958.15;;
31974;SDS011;18500;43.618;1.474;2023-05-19T11:52:21;959.10;;;858.83;;
31974;SDS011;18500;43.618;1.474;2023-05-19T11:54:47;1062.07;;;949.63;;
31974;SDS011;18500;43.618;1.474;2023-05-19T11:57:13;1147.32;;;996.85;;
31974;SDS011;18500;43.618;1.474;2023-05-19T11:59:39;1258.78;;;999.90;;
31974;SDS011;18500;43.618;1.474;2023-05-19T12:04:41;1186.90;;;999.90;;
31974;SDS011;18500;43.618;1.474;2023-05-19T12:07:06;919.97;;;824.95;;
31974;SDS011;18500;43.618;1.474;2023-05-19T12:09:32;1306.03;;;999.90;;
31974;SDS011;18500;43.618;1.474;2023-05-19T12:11:58;1065.28;;;949.35;;
31974;SDS011;18500;43.618;1.474;2023-05-19T12:14:25;1124.97;;;972.75;;
31974;SDS011;18500;43.618;1.474;2023-05-19T12:16:53;1192.53;;;999.90;;
31974;SDS011;18500;43.618;1.474;2023-05-19T12:19:21;1093.38;;;959.58;;
31974;SDS011;18500;43.618;1.474;2023-05-19T12:21:47;1254.15;;;999.90;;
31974;SDS011;18500;43.618;1.474;2023-05-19T12:24:13;1123.95;;;997.50;;
31974;SDS011;18500;43.618;1.474;2023-05-19T12:26:39;1249.13;;;999.90;;
31974;SDS011;18500;43.618;1.474;2023-05-19T12:29:05;1035.40;;;922.45;;
31974;SDS011;18500;43.618;1.474;2023-05-19T12:31:31;959.67;;;862.13;;
31974;SDS011;18500;43.618;1.474;2023-05-19T12:33:58;1104.32;;;982.58;;
31974;SDS011;18500;43.618;1.474;2023-05-19T12:36:25;861.97;;;775.75;;
31974;SDS011;18500;43.618;1.474;2023-05-19T12:38:55;944.05;;;840.20;;
31974;SDS011;18500;43.618;1.474;2023-05-19T12:41:22;1285.22;;;999.90;;
31974;SDS011;18500;43.618;1.474;2023-05-19T12:43:48;1231.15;;;999.90;;
31974;SDS011;18500;43.618;1.474;2023-05-19T12:46:14;1056.15;;;936.22;;
31974;SDS011;18500;43.618;1.474;2023-05-19T12:48:43;1131.82;;;976.85;;
31974;SDS011;18500;43.618;1.474;2023-05-19T12:51:10;1108.55;;;944.83;;
31974;SDS011;18500;43.618;1.474;2023-05-19T12:53:42;1217.90;;;996.30;;
31974;SDS011;18500;43.618;1.474;2023-05-19T12:56:12;1030.15;;;919.17;;
31974;SDS011;18500;43.618;1.474;2023-05-19T12:58:38;957.80;;;856.30;;
31974;SDS011;18500;43.618;1.474;2023-05-19T13:01:05;921.70;;;831.05;;
31974;SDS011;18500;43.618;1.474;2023-05-19T13:03:38;1027.47;;;920.65;;
31974;SDS011;18500;43.618;1.474;2023-05-19T13:06:05;954.83;;;865.88;;
31974;SDS011;18500;43.618;1.474;2023-05-19T13:08:31;893.85;;;810.20;;
31974;SDS011;18500;43.618;1.474;2023-05-19T13:10:57;958.88;;;864.47;;
31974;SDS011;18500;43.618;1.474;2023-05-19T13:13:23;783.85;;;709.35;;
31974;SDS011;18500;43.618;1.474;2023-05-19T13:15:49;799.97;;;713.70;;
31974;SDS011;18500;43.618;1.474;2023-05-19T13:18:15;982.60;;;877.85;;
31974;SDS011;18500;43.618;1.474;2023-05-19T13:20:41;1366.28;;;999.90;;
31974;SDS011;18500;43.618;1.474;2023-05-19T13:23:09;1651.53;;;999.90;;
31974;SDS011;18500;43.618;1.474;2023-05-19T13:25:35;961.33;;;867.50;;
31974;SDS011;18500;43.618;1.474;2023-05-19T13:28:01;999.03;;;898.22;;
31974;SDS011;18500;43.618;1.474;2023-05-19T13:30:30;982.83;;;884.78;;
31974;SDS011;18500;43.618;1.474;2023-05-19T13:32:56;1416.65;;;999.90;;
31974;SDS011;18500;43.618;1.474;2023-05-19T13:35:22;1798.55;;;999.90;;
31974;SDS011;18500;43.618;1.474;2023-05-19T13:37:48;1526.28;;;999.90;;
31974;SDS011;18500;43.618;1.474;2023-05-19T13:40:14;1592.15;;;999.90;;
31974;SDS011;18500;43.618;1.474;2023-05-19T13:42:41;964.92;;;870.55;;
31974;SDS011;18500;43.618;1.474;2023-05-19T13:45:07;1052.95;;;932.60;;
31974;SDS011;18500;43.618;1.474;2023-05-19T13:47:34;1607.57;;;999.90;;
31974;SDS011;18500;43.618;1.474;2023-05-19T13:50:01;971.85;;;876.78;;
31974;SDS011;18500;43.618;1.474;2023-05-19T13:52:27;1125.43;;;969.92;;
31974;SDS011;18500;43.618;1.474;2023-05-19T13:54:53;992.70;;;890.97;;
31974;SDS011;18500;43.618;1.474;2023-05-19T13:57:20;1674.03;;;999.90;;
31974;SDS011;18500;43.618;1.474;2023-05-19T13:59:47;1405.05;;;999.90;;
31974;SDS011;18500;43.618;1.474;2023-05-19T14:02:12;1571.80;;;999.90;;
31974;SDS011;18500;43.618;1.474;2023-05-19T14:04:38;1276.03;;;999.90;;
31974;SDS011;18500;43.618;1.474;2023-05-19T14:07:04;1689.50;;;999.90;;
31974;SDS011;18500;43.618;1.474;2023-05-19T14:09:31;1823.13;;;999.90;;
31974;SDS011;18500;43.618;1.474;2023-05-19T14:11:57;1868.65;;;999.90;;
31974;SDS011;18500;43.618;1.474;2023-05-19T14:14:22;1657.03;;;999.90;;
31974;SDS011;18500;43.618;1.474;2023-05-19T14:16:49;1678.07;;;999.90;;
31974;SDS011;18500;43.618;1.474;2023-05-19T14:19:14;1784.20;;;999.90;;
31974;SDS011;18500;43.618;1.474;2023-05-19T14:21:40;1925.07;;;999.90;;
31974;SDS011;18500;43.618;1.474;2023-05-19T14:24:06;1759.30;;;999.90;;
31974;SDS011;18500;43.618;1.474;2023-05-19T14:26:31;1687.60;;;999.90;;
31974;SDS011;18500;43.618;1.474;2023-05-19T14:28:57;1955.40;;;999.90;;
31974;SDS011;18500;43.618;1.474;2023-05-19T14:31:23;1713.25;;;999.90;;